createdAt,value
2023-03-27T00:03:01.595Z,100157.75
2023-03-27T00:08:05.178Z,100160.19
2023-03-27T00:13:07.064Z,100171.09
2023-03-27T00:18:09.981Z,100187.41
2023-03-27T00:23:13.239Z,100201.16
2023-03-27T00:28:15.487Z,100212.16
2023-03-27T00:33:17.178Z,100217.97
2023-03-27T00:38:20.874Z,100227.16
2023-03-27T00:43:23.715Z,100237.22
2023-03-27T00:48:25.432Z,100232.59
2023-03-27T00:53:28.880Z,100243.44
2023-03-27T00:58:32.206Z,100255.03
2023-03-27T01:03:34.192Z,100261.59
2023-03-27T01:08:37.690Z,100258.81
2023-03-27T01:13:57.858Z,100275.69
2023-03-27T01:19:07.833Z,100277.00
2023-03-27T01:24:31.490Z,100282.94
2023-03-27T01:29:38.567Z,100285.91
2023-03-27T01:35:03.320Z,100304.63
2023-03-27T01:40:10.172Z,100312.34
2023-03-27T01:45:14.207Z,100324.94
2023-03-27T01:50:19.402Z,100327.28
2023-03-27T01:55:24.249Z,100344.28
2023-03-27T02:00:27.778Z,100348.94
2023-03-27T02:05:51.437Z,100359.69
2023-03-27T02:10:56.273Z,100366.34
2023-03-27T02:15:59.000Z,100375.44
2023-03-27T02:21:02.409Z,100380.44
2023-03-27T02:26:09.768Z,100372.41
2023-03-27T02:31:32.686Z,100385.06
2023-03-27T02:36:40.508Z,100391.66
2023-03-27T02:41:47.410Z,100396.59
2023-03-27T02:47:11.355Z,100404.34
2023-03-27T02:52:18.262Z,100404.19
2023-03-27T02:57:25.218Z,100422.16
2023-03-27T03:02:46.136Z,100420.06
2023-03-27T03:07:48.129Z,100421.13
2023-03-27T03:12:51.213Z,100425.34
2023-03-27T03:17:53.393Z,100434.88
2023-03-27T03:22:55.241Z,100452.03
2023-03-27T03:27:58.484Z,100451.09
2023-03-27T03:33:00.368Z,100457.06
2023-03-27T03:38:02.289Z,100456.06
2023-03-27T03:43:15.852Z,100464.41
2023-03-27T03:48:17.982Z,100472.03
2023-03-27T03:53:20.435Z,100476.41
2023-03-27T03:58:34.595Z,100475.47
2023-03-27T04:03:39.763Z,100486.69
2023-03-27T04:08:42.724Z,100496.22
2023-03-27T04:14:08.912Z,100505.53
2023-03-27T04:19:18.153Z,100521.56
2023-03-27T04:24:23.993Z,100528.72
2023-03-27T04:29:30.144Z,100537.72
2023-03-27T04:34:38.251Z,100541.59
2023-03-27T04:40:00.299Z,100537.41
2023-03-27T04:45:04.265Z,100548.44
2023-03-27T04:50:07.221Z,100550.69
2023-03-27T04:55:12.134Z,100547.88
2023-03-27T05:00:19.601Z,100557.25
2023-03-27T05:05:21.470Z,100570.13
2023-03-27T05:10:25.307Z,100573.44
2023-03-27T05:15:32.234Z,100577.78
2023-03-27T05:20:35.203Z,100593.31
2023-03-27T05:25:42.650Z,100593.34
2023-03-27T05:30:49.965Z,100596.84
2023-03-27T05:35:54.990Z,100604.00
2023-03-27T05:40:57.095Z,100606.75
2023-03-27T05:46:01.515Z,100618.22
2023-03-27T05:51:04.813Z,100615.13
2023-03-27T05:56:08.458Z,100627.59
2023-03-27T06:01:23.287Z,100630.31
2023-03-27T06:06:26.995Z,100622.47
2023-03-27T06:11:32.697Z,100626.88
2023-03-27T06:16:36.254Z,100620.06
2023-03-27T06:22:10.186Z,100643.34
2023-03-27T06:27:13.860Z,100654.91
2023-03-27T06:32:17.702Z,100663.47
2023-03-27T06:37:26.376Z,100665.19
2023-03-27T06:42:28.695Z,100671.28
2023-03-27T06:47:44.428Z,100675.72
2023-03-27T06:53:26.477Z,100678.44
2023-03-27T06:58:29.458Z,100690.44
2023-03-27T07:03:32.723Z,100698.63
2023-03-27T07:08:53.322Z,100705.75
2023-03-27T07:13:55.401Z,100702.19
2023-03-27T07:19:05.326Z,100712.13
2023-03-27T07:24:09.168Z,100706.38
2023-03-27T07:29:12.696Z,100705.63
2023-03-27T07:34:16.562Z,100703.56
2023-03-27T07:39:44.592Z,100712.41
2023-03-27T07:44:47.063Z,100723.25
2023-03-27T07:49:50.648Z,100727.53
2023-03-27T07:54:56.877Z,100729.50
2023-03-27T08:00:11.694Z,100727.94
2023-03-27T08:05:24.912Z,100731.59
2023-03-27T08:10:40.191Z,100747.31
2023-03-27T08:15:43.272Z,100739.06
2023-03-27T08:20:57.349Z,100748.56
2023-03-27T08:26:00.819Z,100752.91
2023-03-27T08:31:11.220Z,100751.72
2023-03-27T08:36:14.686Z,100756.91
2023-03-27T08:41:25.404Z,100749.72
2023-03-27T08:46:38.460Z,100755.84
2023-03-27T08:51:44.759Z,100766.44
2023-03-27T08:56:48.915Z,100780.94
2023-03-27T09:01:54.742Z,100801.66
2023-03-27T09:07:01.374Z,100796.28
2023-03-27T09:12:08.799Z,100786.31
2023-03-27T09:17:15.442Z,100782.72
2023-03-27T09:22:22.998Z,100777.56
2023-03-27T09:27:42.617Z,100768.91
2023-03-27T09:32:59.453Z,100784.75
2023-03-27T09:38:06.929Z,100775.47
2023-03-27T09:43:14.348Z,100774.00
2023-03-27T09:48:19.383Z,100791.06
2023-03-27T09:53:25.827Z,100798.63
2023-03-27T09:58:50.733Z,100816.38
2023-03-27T10:03:56.029Z,100867.66
2023-03-27T10:09:19.749Z,100870.66
2023-03-27T10:14:21.924Z,100877.63
2023-03-27T10:19:27.319Z,100841.47
2023-03-27T10:24:33.249Z,100833.97
2023-03-27T10:29:53.031Z,100831.13
2023-03-27T10:34:55.457Z,100815.44
2023-03-27T10:40:16.089Z,100831.50
2023-03-27T10:45:20.554Z,100859.03
2023-03-27T10:50:26.393Z,100881.53
2023-03-27T10:55:44.377Z,100900.16
2023-03-27T11:00:50.442Z,100919.41
2023-03-27T11:05:54.250Z,100920.88
2023-03-27T11:11:13.789Z,100920.75
2023-03-27T11:16:21.891Z,100916.25
2023-03-27T11:21:50.048Z,100916.28
2023-03-27T11:27:01.894Z,100916.31
2023-03-27T11:32:06.097Z,100913.69
2023-03-27T11:37:19.490Z,100896.75
2023-03-27T11:42:23.974Z,100896.09
2023-03-27T11:47:36.430Z,100893.69
2023-03-27T11:52:42.691Z,100896.94
2023-03-27T11:57:56.751Z,100899.47
2023-03-27T12:03:28.483Z,100920.19
2023-03-27T12:08:36.782Z,100910.66
2023-03-27T12:14:18.055Z,100906.38
2023-03-27T12:19:38.425Z,100901.59
2023-03-27T12:25:04.842Z,100917.84
2023-03-27T12:30:41.306Z,100961.75
2023-03-27T12:35:47.026Z,100964.94
2023-03-27T12:40:59.142Z,100941.59
2023-03-27T12:46:10.207Z,100954.81
2023-03-27T12:51:14.166Z,100966.16
2023-03-27T12:56:27.380Z,100960.75
2023-03-27T13:01:52.809Z,100963.38
2023-03-27T13:07:00.584Z,100962.03
2023-03-27T13:13:02.546Z,100967.06
2023-03-27T13:18:29.814Z,100969.94
2023-03-27T13:23:43.252Z,100959.72
2023-03-27T13:28:54.090Z,100955.97
2023-03-27T13:34:12.224Z,100946.81
2023-03-27T13:39:22.109Z,100942.28
2023-03-27T13:44:49.178Z,100941.56
2023-03-27T13:50:05.017Z,100947.09
2023-03-27T13:55:27.841Z,100953.94
2023-03-27T14:01:22.709Z,100958.53
2023-03-27T14:06:50.583Z,100988.03
2023-03-27T14:12:06.799Z,101007.94
2023-03-27T14:17:31.451Z,101012.19
2023-03-27T14:22:35.990Z,100999.59
2023-03-27T14:27:39.183Z,100990.38
2023-03-27T14:32:42.859Z,100981.34
2023-03-27T14:37:46.024Z,100988.22
2023-03-27T14:42:58.655Z,100983.88
2023-03-27T14:48:02.854Z,100988.75
2023-03-27T14:53:16.144Z,100977.66
2023-03-27T14:58:46.502Z,100977.47
2023-03-27T15:03:51.581Z,100979.72
2023-03-27T15:08:55.975Z,100982.72
2023-03-27T15:14:24.271Z,100990.69
2023-03-27T15:19:27.048Z,100999.47
2023-03-27T15:24:31.836Z,101001.91
2023-03-27T15:29:39.042Z,101014.69
2023-03-27T15:34:46.031Z,101012.78
2023-03-27T15:40:41.794Z,101008.84
2023-03-27T15:45:56.721Z,101001.28
2023-03-27T15:50:59.478Z,100998.28
2023-03-27T15:56:02.088Z,100991.81
2023-03-27T16:01:18.030Z,100995.69
2023-03-27T16:06:27.700Z,100988.41
2023-03-27T16:11:32.602Z,101011.81
2023-03-27T16:16:35.762Z,101020.47
2023-03-27T16:21:37.824Z,101015.06
2023-03-27T16:26:39.653Z,101013.28
2023-03-27T16:31:42.745Z,101011.22
2023-03-27T16:36:45.063Z,101026.47
2023-03-27T16:41:47.147Z,101032.25
2023-03-27T16:46:50.824Z,101035.75
2023-03-27T16:51:53.027Z,101036.53
2023-03-27T16:56:54.771Z,101048.16
2023-03-27T17:01:57.846Z,101052.94
2023-03-27T17:06:59.539Z,101060.28
2023-03-27T17:12:01.540Z,101064.25
2023-03-27T17:17:05.355Z,101074.19
2023-03-27T17:22:07.604Z,101072.94
2023-03-27T17:27:09.855Z,101082.38
2023-03-27T17:32:12.956Z,101089.91
2023-03-27T17:37:14.698Z,101096.56
2023-03-27T17:42:17.024Z,101107.41
2023-03-27T17:47:20.189Z,101118.13
2023-03-27T17:52:23.391Z,101121.34
2023-03-27T17:57:25.122Z,101126.88
2023-03-27T18:02:28.920Z,101126.47
2023-03-27T18:07:31.496Z,101130.34
2023-03-27T18:12:33.191Z,101129.97
2023-03-27T18:17:36.934Z,101142.53
2023-03-27T18:22:39.499Z,101138.84
2023-03-27T18:27:43.301Z,101159.84
2023-03-27T18:32:47.007Z,101159.47
2023-03-27T18:37:48.733Z,101169.63
2023-03-27T18:42:50.519Z,101163.63
2023-03-27T18:47:54.045Z,101171.22
2023-03-27T18:52:55.818Z,101174.78
2023-03-27T18:57:57.501Z,101175.13
2023-03-27T19:03:01.513Z,101171.66
2023-03-27T19:08:03.823Z,101179.41
2023-03-27T19:13:05.525Z,101184.34
2023-03-27T19:18:30.000Z,101193.66
2023-03-27T19:23:50.518Z,101195.00
2023-03-27T19:28:56.962Z,101193.00
2023-03-27T19:34:02.057Z,101197.28
2023-03-27T19:39:04.505Z,101191.16
2023-03-27T19:44:06.311Z,101191.59
2023-03-27T19:49:09.517Z,101198.22
2023-03-27T19:54:19.729Z,101199.66
2023-03-27T19:59:30.234Z,101210.94
2023-03-27T20:04:34.216Z,101219.88
2023-03-27T20:09:37.012Z,101224.50
2023-03-27T20:14:38.768Z,101229.56
2023-03-27T20:19:46.126Z,101245.94
2023-03-27T20:24:48.679Z,101234.69
2023-03-27T20:29:51.376Z,101227.25
2023-03-27T20:34:54.862Z,101215.31
2023-03-27T20:39:57.131Z,101208.56
2023-03-27T20:45:01.558Z,101196.53
2023-03-27T20:50:05.536Z,101202.56
2023-03-27T20:55:08.213Z,101199.72
2023-03-27T21:00:11.944Z,101201.59
2023-03-27T21:05:15.644Z,101196.59
2023-03-27T21:10:19.357Z,101219.66
2023-03-27T21:15:21.291Z,101198.75
2023-03-27T21:20:24.650Z,101207.41
2023-03-27T21:25:26.721Z,101202.97
2023-03-27T21:30:46.649Z,101217.72
2023-03-27T21:35:51.701Z,101216.09
2023-03-27T21:40:53.465Z,101218.72
2023-03-27T21:45:55.533Z,101221.09
2023-03-27T21:51:01.777Z,101217.63
2023-03-27T21:56:04.249Z,101220.50
2023-03-27T22:01:06.811Z,101215.53
2023-03-27T22:06:12.861Z,101212.47
2023-03-27T22:11:15.474Z,101220.22
2023-03-27T22:16:17.396Z,101217.53
2023-03-27T22:21:22.245Z,101224.63
2023-03-27T22:26:25.100Z,101233.88
2023-03-27T22:31:27.181Z,101252.25
2023-03-27T22:36:30.439Z,101254.53
2023-03-27T22:41:32.216Z,101255.84
2023-03-27T22:46:34.011Z,101258.84
2023-03-27T22:51:37.113Z,101255.50
2023-03-27T22:56:38.939Z,101263.50
2023-03-27T23:01:40.810Z,101260.84
2023-03-27T23:06:43.954Z,101278.09
2023-03-27T23:11:46.997Z,101294.38
2023-03-27T23:16:48.891Z,101286.53
2023-03-27T23:21:52.013Z,101293.53
2023-03-27T23:26:53.741Z,101300.44
2023-03-27T23:31:55.858Z,101291.97
2023-03-27T23:36:59.707Z,101315.84
2023-03-27T23:42:01.724Z,101306.53
2023-03-27T23:47:03.612Z,101318.84
2023-03-27T23:52:06.825Z,101318.34
2023-03-27T23:57:08.745Z,101334.38
